Rosalia, Kansas
Current Conditions -  °F | °C
As of 12:55 AM on Thursday 27 Nov 2014 (Local Time) from KEQA Reporting Station
Clear Clear  
Wind Chill: 20°   Ceiling: Unl
Heat Index: 30°   Visibility: 10mi
Dew Point: 21°   Wind: 14mph
Humidity: 69%   Direction: 10°N
Pressure: 30.43"   Gusts: NA
Location:  37.82°N, 96.62°W
Report Text: KEQA 270655Z AUTO 01012KT 10SM CLR M01/M06 A3043 RMK AO2
Loading
Personal Weather Stations






























Interactive Weather Map New forecast layout! Learn more

10-Day Weather Forecast

Advertisements
Track Severe Weather on mobile